Rosewood, Indiana
Current Conditions -  °F | °C
As of 4:56 PM on Friday 28 Nov 2014 (Local Time) from KSDF Reporting Station
Few Clouds Few Clouds  
Wind Chill: 31°   Ceiling: Unl
Heat Index: 39°   Visibility: 10mi
Dew Point: 21°   Wind: 13mph
Humidity: 49%   Direction: 170°S
Pressure: 30.19"   Gusts: NA
Location:  38.1042°N, 85.9595°W
Report Text: KSDF 282156Z 17011KT 10SM FEW120 FEW250 04/M06 A3019 RMK AO2 SLP226 T00391061
Loading
Personal Weather Stations






























Interactive Weather Map New forecast layout! Learn more

10-Day Weather Forecast

Advertisements
Track Severe Weather on mobile